createdAt,value
2023-08-19T00:00:53.891Z,18.65
2023-08-19T00:03:57.475Z,17.95
2023-08-19T00:07:01.076Z,17.27
2023-08-19T00:10:05.489Z,16.97
2023-08-19T00:13:09.075Z,16.48
2023-08-19T00:16:12.476Z,16.42
2023-08-19T00:19:15.955Z,17.35
2023-08-19T00:22:19.512Z,16.10
2023-08-19T00:25:23.273Z,17.63
2023-08-19T00:28:26.869Z,17.70
2023-08-19T00:31:30.329Z,16.65
2023-08-19T00:34:33.675Z,16.35
2023-08-19T00:37:37.529Z,17.10
2023-08-19T00:40:40.948Z,17.10
2023-08-19T00:43:45.224Z,15.65
2023-08-19T00:46:48.806Z,17.77
2023-08-19T00:49:53.782Z,17.35
2023-08-19T00:52:57.219Z,17.60
2023-08-19T00:56:00.763Z,17.47
2023-08-19T00:59:04.322Z,17.77
2023-08-19T01:02:07.808Z,17.27
2023-08-19T01:05:11.384Z,17.98
2023-08-19T01:08:22.144Z,16.30
2023-08-19T01:12:05.181Z,17.53
2023-08-19T01:15:18.458Z,17.27
2023-08-19T01:18:24.559Z,17.23
2023-08-19T01:21:28.687Z,17.38
2023-08-19T01:24:42.202Z,16.87
2023-08-19T01:27:45.661Z,17.33
2023-08-19T01:30:49.284Z,15.40
2023-08-19T01:33:53.544Z,15.45
2023-08-19T01:37:08.513Z,14.38
2023-08-19T01:40:14.561Z,14.50
2023-08-19T01:43:18.530Z,15.23
2023-08-19T01:46:22.082Z,16.45
2023-08-19T01:49:26.564Z,17.63
2023-08-19T01:52:33.028Z,17.98
2023-08-19T01:55:36.477Z,17.63
2023-08-19T01:58:40.054Z,17.73
2023-08-19T02:01:43.575Z,18.35
2023-08-19T02:04:47.154Z,16.60
2023-08-19T02:07:50.520Z,16.38
2023-08-19T02:10:53.965Z,16.53
2023-08-19T02:13:57.838Z,16.50
2023-08-19T02:17:02.402Z,16.40
2023-08-19T02:20:06.604Z,15.55
2023-08-19T02:23:09.987Z,17.35
2023-08-19T02:26:13.502Z,16.53
2023-08-19T02:29:16.862Z,17.33
2023-08-19T02:32:20.635Z,17.10
2023-08-19T02:35:23.994Z,16.35
2023-08-19T02:38:27.319Z,15.63
2023-08-19T02:41:30.726Z,14.60
2023-08-19T02:44:34.100Z,15.27
2023-08-19T02:47:37.483Z,15.95
2023-08-19T02:50:40.876Z,14.95
2023-08-19T02:53:44.201Z,15.75
2023-08-19T02:56:48.621Z,15.50
2023-08-19T02:59:51.979Z,17.57
2023-08-19T03:02:55.480Z,18.65
2023-08-19T03:06:00.327Z,17.08
2023-08-19T03:09:03.882Z,16.65
2023-08-19T03:12:07.760Z,18.57
2023-08-19T03:15:11.381Z,16.87
2023-08-19T03:18:16.117Z,18.30
2023-08-19T03:21:19.673Z,16.95
2023-08-19T03:24:23.052Z,17.13
2023-08-19T03:27:26.449Z,16.97
2023-08-19T03:30:29.847Z,16.43
2023-08-19T03:33:33.650Z,16.77
2023-08-19T03:36:37.168Z,15.82
2023-08-19T03:39:40.528Z,15.27
2023-08-19T03:42:43.913Z,17.00
2023-08-19T03:45:47.226Z,18.37
2023-08-19T03:48:50.869Z,16.42
2023-08-19T03:51:54.254Z,17.45
2023-08-19T03:54:57.759Z,15.65
2023-08-19T03:58:01.125Z,18.60
2023-08-19T04:01:08.331Z,19.83
2023-08-19T04:04:14.433Z,16.40
2023-08-19T04:07:17.771Z,15.35
2023-08-19T04:10:21.264Z,14.95
2023-08-19T04:13:25.161Z,13.90
2023-08-19T04:16:29.179Z,13.87
2023-08-19T04:19:32.560Z,13.35
2023-08-19T04:22:36.462Z,14.25
2023-08-19T04:25:39.925Z,13.27
2023-08-19T04:28:43.503Z,12.77
2023-08-19T04:31:47.537Z,11.57
2023-08-19T04:34:52.013Z,10.88
2023-08-19T04:37:55.396Z,10.80
2023-08-19T04:41:01.430Z,10.30
2023-08-19T04:44:10.670Z,10.77
2023-08-19T04:47:14.114Z,12.20
2023-08-19T04:50:20.330Z,11.00
2023-08-19T04:53:23.748Z,11.52
2023-08-19T04:56:27.634Z,10.95
2023-08-19T04:59:31.038Z,10.93
2023-08-19T05:02:35.245Z,10.30
2023-08-19T05:05:38.695Z,11.02
2023-08-19T05:08:43.005Z,10.75
2023-08-19T05:11:46.437Z,10.30
2023-08-19T05:14:51.240Z,10.50
2023-08-19T05:17:54.919Z,12.13
2023-08-19T05:20:58.293Z,10.98
2023-08-19T05:24:01.818Z,10.90
2023-08-19T05:27:05.203Z,10.57
2023-08-19T05:30:09.164Z,10.70
2023-08-19T05:33:12.605Z,10.27
2023-08-19T05:36:16.108Z,10.38
2023-08-19T05:39:19.581Z,10.75
2023-08-19T05:42:23.045Z,9.88
2023-08-19T05:45:26.474Z,9.95
2023-08-19T05:48:29.845Z,9.73
2023-08-19T05:51:33.357Z,10.60
2023-08-19T05:54:36.695Z,10.60
2023-08-19T05:57:40.047Z,11.75
2023-08-19T06:00:44.322Z,9.45
2023-08-19T06:03:47.687Z,9.07
2023-08-19T06:06:53.373Z,9.70
2023-08-19T06:09:58.403Z,9.80
2023-08-19T06:13:02.702Z,9.23
2023-08-19T06:16:06.613Z,9.15
2023-08-19T06:19:11.070Z,9.23
2023-08-19T06:22:16.219Z,9.65
2023-08-19T06:25:19.692Z,9.95
2023-08-19T06:28:23.600Z,8.90
2023-08-19T06:31:27.623Z,8.82
2023-08-19T06:34:31.520Z,9.10
2023-08-19T06:37:42.031Z,8.85
2023-08-19T06:40:59.750Z,10.60
2023-08-19T06:44:04.950Z,9.48
2023-08-19T06:47:10.876Z,9.82
2023-08-19T06:50:15.367Z,10.47
2023-08-19T06:53:19.571Z,9.70
2023-08-19T06:56:33.497Z,9.15
2023-08-19T06:59:41.496Z,9.73
2023-08-19T07:02:46.150Z,9.50
2023-08-19T07:05:50.960Z,9.50
2023-08-19T07:08:55.256Z,8.82
2023-08-19T07:11:59.557Z,9.07
2023-08-19T07:15:03.990Z,9.45
2023-08-19T07:18:11.741Z,9.88
2023-08-19T07:21:16.447Z,9.43
2023-08-19T07:24:19.924Z,9.45
2023-08-19T07:27:23.921Z,9.40
2023-08-19T07:30:27.867Z,9.70
2023-08-19T07:33:31.325Z,9.93
2023-08-19T07:36:35.427Z,9.90
2023-08-19T07:39:39.675Z,9.75
2023-08-19T07:42:43.028Z,9.88
2023-08-19T07:45:46.451Z,9.75
2023-08-19T07:48:49.864Z,10.68
2023-08-19T07:51:53.796Z,10.30
2023-08-19T07:54:58.040Z,10.82
2023-08-19T07:58:01.470Z,10.52
2023-08-19T08:01:05.115Z,9.73
2023-08-19T08:04:08.487Z,10.43
2023-08-19T08:07:11.964Z,9.93
2023-08-19T08:10:15.356Z,9.85
2023-08-19T08:13:18.701Z,10.63
2023-08-19T08:16:22.194Z,10.20
2023-08-19T08:19:27.179Z,10.40
2023-08-19T08:22:30.627Z,9.97
2023-08-19T08:25:34.266Z,9.90
2023-08-19T08:28:38.479Z,10.27
2023-08-19T08:31:41.879Z,10.40
2023-08-19T08:34:45.230Z,10.00
2023-08-19T08:37:48.645Z,10.03
2023-08-19T08:40:52.143Z,10.30
2023-08-19T08:43:58.746Z,10.68
2023-08-19T08:47:02.407Z,9.63
2023-08-19T08:50:06.398Z,10.40
2023-08-19T08:53:10.395Z,9.93
2023-08-19T08:56:15.061Z,10.43
2023-08-19T08:59:18.916Z,10.13
2023-08-19T09:02:25.551Z,9.80
2023-08-19T09:05:30.531Z,9.68
2023-08-19T09:08:42.942Z,11.17
2023-08-19T09:11:50.087Z,10.00
2023-08-19T09:14:59.099Z,10.52
2023-08-19T09:18:03.298Z,10.68
2023-08-19T09:21:07.586Z,10.73
2023-08-19T09:24:15.327Z,10.83
2023-08-19T09:27:27.681Z,9.98
2023-08-19T09:30:37.928Z,10.75
2023-08-19T09:33:45.064Z,10.00
2023-08-19T09:36:48.584Z,11.40
2023-08-19T09:39:51.944Z,9.67
2023-08-19T09:43:01.674Z,10.07
2023-08-19T09:46:05.033Z,10.30
2023-08-19T09:49:08.429Z,9.98
2023-08-19T09:52:21.244Z,10.15
2023-08-19T09:55:25.925Z,10.10
2023-08-19T09:58:29.300Z,9.98
2023-08-19T10:01:34.218Z,9.80
2023-08-19T10:04:37.625Z,9.18
2023-08-19T10:07:46.721Z,9.95
2023-08-19T10:10:50.584Z,9.60
2023-08-19T10:13:56.676Z,9.20
2023-08-19T10:17:09.084Z,9.57
2023-08-19T10:20:16.242Z,9.35
2023-08-19T10:23:21.080Z,10.38
2023-08-19T10:26:24.758Z,9.67
2023-08-19T10:29:28.079Z,9.55
2023-08-19T10:32:33.807Z,9.82
2023-08-19T10:36:04.189Z,8.95
2023-08-19T10:39:17.013Z,9.48
2023-08-19T10:42:27.873Z,9.80
2023-08-19T10:45:35.994Z,8.88
2023-08-19T10:48:45.492Z,9.80
2023-08-19T10:51:54.881Z,9.48
2023-08-19T10:55:01.464Z,10.68
2023-08-19T10:58:05.271Z,8.97
2023-08-19T11:01:08.638Z,9.50
2023-08-19T11:04:12.708Z,9.77
2023-08-19T11:07:16.501Z,8.75
2023-08-19T11:10:20.297Z,8.98
2023-08-19T11:13:24.767Z,9.03
2023-08-19T11:16:28.836Z,8.43
2023-08-19T11:19:33.262Z,9.23
2023-08-19T11:22:47.381Z,8.65
2023-08-19T11:25:50.854Z,8.80
2023-08-19T11:28:54.298Z,8.60
2023-08-19T11:31:59.304Z,8.82
2023-08-19T11:35:02.979Z,8.90
2023-08-19T11:38:14.477Z,8.93
2023-08-19T11:41:17.872Z,8.95
2023-08-19T11:44:23.925Z,8.50
2023-08-19T11:47:31.031Z,8.35
2023-08-19T11:50:37.441Z,8.57
2023-08-19T11:53:42.046Z,8.07
2023-08-19T11:56:56.491Z,8.20
2023-08-19T12:00:00.065Z,8.13
2023-08-19T12:03:03.905Z,8.02
2023-08-19T12:06:07.530Z,7.28
2023-08-19T12:09:11.434Z,6.72
2023-08-19T12:12:14.949Z,6.85
2023-08-19T12:15:19.086Z,7.53
2023-08-19T12:18:23.008Z,7.13
2023-08-19T12:21:27.313Z,7.85
2023-08-19T12:24:30.689Z,6.72
2023-08-19T12:27:34.023Z,6.47
2023-08-19T12:30:37.361Z,6.70
2023-08-19T12:33:43.771Z,6.32
2023-08-19T12:36:47.448Z,7.05
2023-08-19T12:39:50.748Z,7.10
2023-08-19T12:42:55.696Z,7.45
2023-08-19T12:45:59.440Z,7.73
2023-08-19T12:49:02.841Z,7.90
2023-08-19T12:52:06.195Z,6.97
2023-08-19T12:55:09.663Z,7.10
2023-08-19T12:58:13.438Z,7.45
2023-08-19T13:01:16.841Z,7.47
2023-08-19T13:04:20.235Z,6.93
2023-08-19T13:07:23.640Z,6.70
2023-08-19T13:10:27.040Z,7.05
2023-08-19T13:13:30.546Z,7.40
2023-08-19T13:16:33.983Z,7.43
2023-08-19T13:19:37.325Z,7.45
2023-08-19T13:22:40.648Z,6.97
2023-08-19T13:25:44.177Z,6.80
2023-08-19T13:28:47.586Z,7.40
2023-08-19T13:31:50.972Z,7.10
2023-08-19T13:34:54.434Z,7.05
2023-08-19T13:37:57.997Z,7.05
2023-08-19T13:41:01.502Z,6.93
2023-08-19T13:44:05.065Z,6.80
2023-08-19T13:47:08.452Z,6.90
2023-08-19T13:50:11.808Z,7.20
2023-08-19T13:53:15.188Z,6.22
2023-08-19T13:56:18.583Z,7.18
2023-08-19T13:59:21.961Z,7.05
2023-08-19T14:02:25.382Z,8.40
2023-08-19T14:05:29.906Z,7.90
2023-08-19T14:08:37.393Z,8.23
2023-08-19T14:11:40.793Z,7.65
2023-08-19T14:14:44.281Z,8.10
2023-08-19T14:17:47.744Z,7.23
2023-08-19T14:20:51.424Z,8.15
2023-08-19T14:23:54.840Z,7.93
2023-08-19T14:26:58.146Z,7.47
2023-08-19T14:30:01.891Z,8.20
2023-08-19T14:33:05.757Z,7.17
2023-08-19T14:36:09.148Z,7.85
2023-08-19T14:39:12.506Z,7.65
2023-08-19T14:42:15.890Z,7.55
2023-08-19T14:45:19.270Z,7.90
2023-08-19T14:48:22.610Z,7.37
2023-08-19T14:51:25.989Z,7.43
2023-08-19T14:54:29.387Z,7.43
2023-08-19T14:57:33.012Z,6.72
2023-08-19T15:00:36.703Z,7.60
2023-08-19T15:03:40.251Z,7.67
2023-08-19T15:06:43.645Z,7.00
2023-08-19T15:09:47.038Z,7.53
2023-08-19T15:12:50.343Z,7.70
2023-08-19T15:15:53.833Z,7.00
2023-08-19T15:18:57.281Z,7.77
2023-08-19T15:22:00.665Z,6.72
2023-08-19T15:25:05.260Z,6.55
2023-08-19T15:28:09.496Z,6.70
2023-08-19T15:31:13.533Z,6.45
2023-08-19T15:34:16.882Z,7.23
2023-08-19T15:37:20.945Z,7.38
2023-08-19T15:40:24.489Z,6.80
2023-08-19T15:43:27.889Z,6.88
2023-08-19T15:46:31.273Z,6.90
2023-08-19T15:49:34.710Z,6.57
2023-08-19T15:52:38.277Z,6.53
2023-08-19T15:55:41.917Z,6.88
2023-08-19T15:58:45.342Z,7.20
2023-08-19T16:01:48.703Z,7.10
2023-08-19T16:04:52.230Z,7.40
2023-08-19T16:07:55.618Z,7.47
2023-08-19T16:11:03.881Z,7.20
2023-08-19T16:14:07.256Z,7.03
2023-08-19T16:17:10.711Z,7.43
2023-08-19T16:20:14.160Z,7.57
2023-08-19T16:23:17.562Z,7.43
2023-08-19T16:26:21.762Z,7.70
2023-08-19T16:29:27.882Z,7.47
2023-08-19T16:32:31.288Z,7.78
2023-08-19T16:35:34.705Z,7.70
2023-08-19T16:38:38.091Z,8.48
2023-08-19T16:41:41.444Z,8.05
2023-08-19T16:44:46.402Z,7.90
2023-08-19T16:47:49.858Z,8.30
2023-08-19T16:50:53.731Z,9.10
2023-08-19T16:53:58.633Z,8.23
2023-08-19T16:57:02.019Z,8.77
2023-08-19T17:00:05.978Z,8.38
2023-08-19T17:03:09.797Z,8.65
2023-08-19T17:06:13.125Z,9.10
2023-08-19T17:09:16.582Z,8.93
2023-08-19T17:12:20.056Z,9.38
2023-08-19T17:15:23.475Z,9.90
2023-08-19T17:18:28.133Z,10.20
2023-08-19T17:21:31.911Z,9.60
2023-08-19T17:24:35.395Z,9.18
2023-08-19T17:27:38.850Z,9.95
2023-08-19T17:30:42.509Z,9.90
2023-08-19T17:33:48.667Z,10.30
2023-08-19T17:36:52.026Z,9.63
2023-08-19T17:39:55.470Z,9.70
2023-08-19T17:42:58.981Z,11.52
2023-08-19T17:46:05.005Z,10.10
2023-08-19T17:49:08.428Z,10.00
2023-08-19T17:52:12.124Z,11.00
2023-08-19T17:55:15.599Z,11.55
2023-08-19T17:58:19.000Z,12.52
2023-08-19T18:01:22.542Z,12.15
2023-08-19T18:04:26.104Z,11.95
2023-08-19T18:07:29.947Z,11.47
2023-08-19T18:10:33.349Z,10.90
2023-08-19T18:13:36.815Z,12.13
2023-08-19T18:16:40.243Z,11.32
2023-08-19T18:19:43.571Z,12.23
2023-08-19T18:22:50.172Z,12.17
2023-08-19T18:25:53.598Z,11.90
2023-08-19T18:28:56.912Z,11.30
2023-08-19T18:32:00.197Z,11.80
2023-08-19T18:35:04.202Z,11.73
2023-08-19T18:38:07.575Z,11.10
2023-08-19T18:41:11.348Z,10.82
2023-08-19T18:44:15.096Z,11.75
2023-08-19T18:47:18.479Z,11.60
2023-08-19T18:50:22.160Z,12.63
2023-08-19T18:53:26.716Z,12.27
2023-08-19T18:56:30.184Z,12.98
2023-08-19T18:59:33.520Z,11.68
2023-08-19T19:02:36.955Z,11.10
2023-08-19T19:05:40.484Z,11.38
2023-08-19T19:08:43.832Z,11.70
2023-08-19T19:11:47.276Z,11.05
2023-08-19T19:14:50.642Z,11.70
2023-08-19T19:17:59.152Z,11.32
2023-08-19T19:21:02.594Z,11.43
2023-08-19T19:24:06.469Z,11.47
2023-08-19T19:27:09.928Z,11.68
2023-08-19T19:30:14.454Z,11.55
2023-08-19T19:33:18.747Z,10.85
2023-08-19T19:36:22.109Z,11.60
2023-08-19T19:39:25.540Z,11.57
2023-08-19T19:42:28.953Z,11.68
2023-08-19T19:45:32.524Z,11.40
2023-08-19T19:48:36.023Z,12.20
2023-08-19T19:51:39.398Z,12.70
2023-08-19T19:54:43.515Z,11.23
2023-08-19T19:57:46.814Z,13.48
2023-08-19T20:00:50.238Z,15.95
2023-08-19T20:03:53.938Z,15.10
2023-08-19T20:06:57.463Z,13.53
2023-08-19T20:10:19.736Z,12.57
2023-08-19T20:13:27.002Z,11.63
2023-08-19T20:16:30.556Z,12.93
2023-08-19T20:19:34.088Z,12.52
2023-08-19T20:22:37.508Z,12.10
2023-08-19T20:25:41.029Z,12.07
2023-08-19T20:28:44.396Z,11.65
2023-08-19T20:31:48.007Z,11.52
2023-08-19T20:34:51.344Z,11.27
2023-08-19T20:37:55.746Z,13.40
2023-08-19T20:40:59.493Z,13.53
2023-08-19T20:44:13.165Z,12.88
2023-08-19T20:47:16.682Z,12.43
2023-08-19T20:50:21.224Z,12.02
2023-08-19T20:53:24.655Z,11.47
2023-08-19T20:56:28.171Z,11.83
2023-08-19T20:59:31.660Z,12.65
2023-08-19T21:02:35.152Z,12.65
2023-08-19T21:05:42.245Z,12.07
2023-08-19T21:08:45.671Z,12.07
2023-08-19T21:11:49.044Z,12.40
2023-08-19T21:14:52.732Z,13.57
2023-08-19T21:17:56.202Z,13.65
2023-08-19T21:20:59.657Z,15.07
2023-08-19T21:24:02.979Z,12.97
2023-08-19T21:27:06.455Z,13.03
2023-08-19T21:30:10.098Z,16.17
2023-08-19T21:33:13.511Z,16.95
2023-08-19T21:36:16.821Z,19.42
2023-08-19T21:39:20.209Z,16.50
2023-08-19T21:42:24.090Z,18.70
2023-08-19T21:45:27.475Z,18.95
2023-08-19T21:48:30.860Z,15.85
2023-08-19T21:51:34.309Z,12.77
2023-08-19T21:54:37.692Z,13.77
2023-08-19T21:57:41.300Z,13.30
2023-08-19T22:00:44.740Z,13.40
2023-08-19T22:03:48.091Z,13.52
2023-08-19T22:06:51.446Z,13.38
2023-08-19T22:09:54.817Z,13.10
2023-08-19T22:12:58.145Z,13.63
2023-08-19T22:16:01.498Z,13.65
2023-08-19T22:19:05.414Z,13.57
2023-08-19T22:22:08.997Z,12.95
2023-08-19T22:25:12.498Z,13.40
2023-08-19T22:28:15.810Z,13.83
2023-08-19T22:31:19.239Z,12.95
2023-08-19T22:34:22.654Z,13.73
2023-08-19T22:37:26.228Z,14.05
2023-08-19T22:40:29.656Z,13.27
2023-08-19T22:43:33.034Z,13.83
2023-08-19T22:46:36.453Z,14.93
2023-08-19T22:49:39.856Z,14.02
2023-08-19T22:52:43.278Z,13.85
2023-08-19T22:55:46.702Z,15.33
2023-08-19T22:58:51.879Z,14.17
2023-08-19T23:01:55.367Z,14.40
2023-08-19T23:04:58.815Z,13.90
2023-08-19T23:08:02.441Z,13.40
2023-08-19T23:11:05.812Z,13.90
2023-08-19T23:14:09.380Z,13.80
2023-08-19T23:17:14.034Z,14.73
2023-08-19T23:20:17.517Z,15.05
2023-08-19T23:23:20.922Z,14.80
2023-08-19T23:26:24.316Z,15.83
2023-08-19T23:29:27.828Z,14.53
2023-08-19T23:32:31.209Z,15.30
2023-08-19T23:35:34.636Z,14.82
2023-08-19T23:38:37.947Z,14.73
2023-08-19T23:41:41.292Z,14.13
2023-08-19T23:44:44.649Z,14.83
2023-08-19T23:47:48.401Z,14.98
2023-08-19T23:50:54.197Z,15.38
2023-08-19T23:54:00.031Z,14.65
2023-08-19T23:57:03.791Z,14.47
